Souryoumaru — JD2876 — position and weather

sailwx.info

Track history (hours):
 
Tides and Currents Weather Stations Pressure Air Temp Water Temp Dewpoint Dewpoint Depression Visibility Wind Speed Wind Dir Waves Ship Positions

Souryoumaru

Last reported at 2018-Apr-23 07:30 UTC. Time now 2018-Apr-23 07:31 UTC.
Position N 34°07' E 135°02'.

Length 65 m; draft 4.2 m.

Type: Ship (hazmat cat C). MMSI: 431000864.

Date/timePositionNaut miles runAvg speedWind from/ knotsBaromVisibWave heightAir tempDewpointWater temp
2018-Apr-23 07:30N 34°07' E 135°02'611.8
2018-Apr-23 07:00N 34°13' E 135°03'611.6
2018-Apr-23 06:30N 34°19' E 135°04'611.2
2018-Apr-23 06:00N 34°23' E 135°08'611.6
2018-Apr-23 05:30N 34°28' E 135°12'612.1
2018-Apr-23 05:00N 34°33' E 135°17'612.1
2018-Apr-23 04:30N 34°37' E 135°21'4 8.7
2018-Apr-23 04:00N 34°40' E 135°25'0 0.0
2018-Apr-23 03:30N 34°40' E 135°25'0 0.0
2018-Apr-23 03:00N 34°40' E 135°25'0 0.0
2018-Apr-23 02:31N 34°40' E 135°25'0 0.2
2018-Apr-23 02:00N 34°40' E 135°25'5 9.2
2018-Apr-23 01:30N 34°37' E 135°21'612.3
2018-Apr-23 01:00N 34°32' E 135°17'612.0
2018-Apr-23 00:30N 34°27' E 135°12'611.8
2018-Apr-23 00:00N 34°23' E 135°08'611.3
2018-Apr-22 23:30N 34°18' E 135°04'510.6
2018-Apr-22 23:00N 34°13' E 135°02'612.4
2018-Apr-22 22:30N 34°07' E 135°00'612.1
2018-Apr-22 22:00N 34°01' E 135°00'612.1
2018-Apr-22 21:30N 33°55' E 135°00'511.2
2018-Apr-22 21:00N 33°49' E 135°02'612.1
2018-Apr-22 20:29N 33°45' E 135°08'612.0
2018-Apr-22 19:59N 33°41' E 135°13'612.1
2018-Apr-22 19:28N 33°37' E 135°18'511.7
2018-Apr-22 19:01N 33°33' E 135°23'4910.7
2018-Apr-22 14:24N 33°48' E 136°19'2312.2
2018-Apr-22 12:31N 34°03' E 136°40'512.3
2018-Apr-22 12:06N 34°06' E 136°44'111.9
2018-Apr-22 12:00N 34°07' E 136°45'712.0
2018-Apr-22 11:24N 34°12' E 136°52'17 9.9
2018-Apr-22 09:41N 34°29' E 136°52'211.3
2018-Apr-22 09:29N 34°31' E 136°50'510.3
2018-Apr-22 09:00N 34°35' E 136°48'611.9
2018-Apr-22 08:29N 34°41' E 136°46'612.0
2018-Apr-22 07:59N 34°47' E 136°44'612.0
2018-Apr-22 07:30N 34°52' E 136°42'510.3
2018-Apr-22 07:00N 34°57' E 136°39'1 1.3
2018-Apr-22 06:30N 34°57' E 136°38'0 0.0
2018-Apr-22 06:00N 34°57' E 136°38'0 0.0
2018-Apr-22 05:30N 34°57' E 136°38'0 0.0
2018-Apr-22 05:00N 34°57' E 136°38'0 0.0
2018-Apr-22 04:30N 34°57' E 136°38'0 0.0
2018-Apr-22 04:00N 34°57' E 136°38'3 5.9
2018-Apr-22 03:30N 34°56' E 136°41'612.0
2018-Apr-22 03:00N 34°50' E 136°45'612.0
2018-Apr-22 02:30N 34°45' E 136°48'611.8
2018-Apr-22 02:00N 34°40' E 136°52'611.7
2018-Apr-22 01:28N 34°36' E 136°58'610.9
2018-Apr-22 00:57N 34°33' E 137°04'511.6
2018-Apr-22 00:30N 34°33' E 137°10'611.4
2018-Apr-22 00:00N 34°33' E 137°17'1911.7
2018-Apr-21 22:23N 34°33' E 137°40'711.6
2018-Apr-21 21:49N 34°33' E 137°48'511.4
2018-Apr-21 21:23N 34°33' E 137°54'411.3
2018-Apr-21 21:00N 34°33' E 137°59'611.2
2018-Apr-21 20:29N 34°32' E 138°06'811.5
2018-Apr-21 19:49N 34°32' E 138°15'511.4
2018-Apr-21 19:22N 34°33' E 138°22'411.8
2018-Apr-21 19:00N 34°33' E 138°27'611.7
2018-Apr-21 18:30N 34°34' E 138°34'611.9
2018-Apr-21 18:00N 34°34' E 138°41'611.6
2018-Apr-21 17:29N 34°35' E 138°49'511.0
2018-Apr-21 17:00N 34°36' E 138°55'611.1
2018-Apr-21 16:30N 34°39' E 139°00'511.0
2018-Apr-21 16:00N 34°43' E 139°04'610.7
2018-Apr-21 15:28N 34°48' E 139°08'511.1
2018-Apr-21 15:00N 34°49' E 139°14'510.1
2018-Apr-21 14:30N 34°50' E 139°21'510.1
2018-Apr-21 14:00N 34°50' E 139°27'510.7
2018-Apr-21 13:30N 34°49' E 139°33'5 9.8
2018-Apr-21 13:00N 34°49' E 139°39'5 9.1
2018-Apr-21 12:30N 34°49' E 139°45'510.5
2018-Apr-21 12:01N 34°51' E 139°50'611.1
2018-Apr-21 11:28N 34°53' E 139°57'511.1
2018-Apr-21 11:00N 34°56' E 140°02'510.9
2018-Apr-21 10:30N 34°59' E 140°08'510.6
2018-Apr-21 10:00N 35°02' E 140°13'510.2
2018-Apr-21 09:29N 35°05' E 140°19'56 2.8
2018-Apr-20 13:09N 34°46' E 139°14'213.7
2018-Apr-20 13:00N 34°45' E 139°12'913.6
2018-Apr-20 12:23N 34°40' E 139°04'712.2
2018-Apr-20 11:48N 34°36' E 138°57'512.2
2018-Apr-20 11:22N 34°34' E 138°51'713.1
2018-Apr-20 10:52N 34°32' E 138°43'613.2
2018-Apr-20 10:26N 34°31' E 138°37'613.3
2018-Apr-20 10:00N 34°29' E 138°30'712.9
2018-Apr-20 09:29N 34°27' E 138°22'17010.7
2018-Apr-19 17:40N 33°50' E 135°02'213.1
2018-Apr-19 17:30N 33°51' E 135°01'713.3
2018-Apr-19 17:00N 33°57' E 134°56'813.2
2018-Apr-19 16:24N 34°03' E 134°49'513.0
2018-Apr-19 16:00N 34°07' E 134°45'812.9
2018-Apr-19 15:24N 34°13' E 134°40'511.7
2018-Apr-19 14:56N 34°17' E 134°35'512.1
2018-Apr-19 14:30N 34°18' E 134°29'612.5
2018-Apr-19 14:01N 34°21' E 134°22'611.8
2018-Apr-19 13:31N 34°23' E 134°15'12 9.9
2018-Apr-19 12:18N 34°25' E 134°01'3 0.1
2018-Apr-18 14:22N 34°27' E 134°04'513.1
2018-Apr-18 14:00N 34°26' E 134°09'813.2
2018-Apr-18 13:26N 34°23' E 134°18'512.5
2018-Apr-18 13:00N 34°21' E 134°24'612.1
2018-Apr-18 12:31N 34°18' E 134°30'612.3
2018-Apr-18 12:00N 34°16' E 134°37'713.4
2018-Apr-18 11:30N 34°11' E 134°42'612.2
2018-Apr-18 11:00N 34°06' E 134°46'612.1
2018-Apr-18 10:30N 34°01' E 134°51'612.0
2018-Apr-18 10:00N 33°56' E 134°56'612.2
2018-Apr-18 09:30N 33°52' E 135°01'83 9.1
2018-Apr-18 00:23N 34°02' E 136°40'512.3
2018-Apr-18 00:00N 34°05' E 136°44'7811.8
2018-Apr-17 17:23N 34°29' E 138°15'411.6
2018-Apr-17 17:00N 34°30' E 138°20'711.7
2018-Apr-17 16:26N 34°32' E 138°28'511.4
2018-Apr-17 16:01N 34°33' E 138°34'611.4
2018-Apr-17 15:27N 34°34' E 138°41'612.1
2018-Apr-17 14:58N 34°35' E 138°48'511.5
2018-Apr-17 14:31N 34°36' E 138°54'611.1
2018-Apr-17 14:00N 34°38' E 139°00'611.4
2018-Apr-17 13:31N 34°42' E 139°06'711.9
2018-Apr-17 12:56N 34°47' E 139°12'511.3
2018-Apr-17 12:30N 34°49' E 139°17'711.7
2018-Apr-17 11:54N 34°51' E 139°25'511.6
2018-Apr-17 11:29N 34°51' E 139°31'611.7
2018-Apr-17 11:00N 34°51' E 139°38'711.2
2018-Apr-17 10:25N 34°52' E 139°46'1010.5
2018-Apr-17 09:28N 34°53' E 139°58'510.7
2018-Apr-17 09:00N 34°57' E 140°02'510.7
2018-Apr-17 08:30N 34°60' E 140°08'510.8
2018-Apr-17 08:00N 35°03' E 140°13'52 2.4
2018-Apr-16 10:09N 34°46' E 139°14'212.3
2018-Apr-16 10:00N 34°45' E 139°12'811.9
2018-Apr-16 09:18N 34°39' E 139°04'411.3
2018-Apr-16 08:55N 34°37' E 138°60'20310.9
2018-Apr-15 14:19N 33°52' E 135°01'513.1
2018-Apr-15 13:58N 33°55' E 134°57'612.9
2018-Apr-15 13:29N 34°00' E 134°53'612.8
2018-Apr-15 13:00N 34°05' E 134°48'1512.5
2018-Apr-15 11:49N 34°16' E 134°36'412.3
2018-Apr-15 11:29N 34°18' E 134°31'612.3
2018-Apr-15 11:01N 34°20' E 134°25'611.8
2018-Apr-15 10:30N 34°22' E 134°18'79 7.2
2018-Apr-14 23:31N 34°04' E 132°44'213.3
2018-Apr-14 23:21N 34°03' E 132°42'513.3
2018-Apr-14 23:01N 34°01' E 132°37'813.5
2018-Apr-14 22:26N 33°56' E 132°30'613.8
2018-Apr-14 22:00N 33°52' E 132°25'713.1
2018-Apr-14 21:29N 33°50' E 132°17'1112.6
2018-Apr-14 20:37N 33°46' E 132°05'212.4
2018-Apr-14 20:25N 33°45' E 132°02'612.4
2018-Apr-14 19:58N 33°46' E 131°56'612.2
2018-Apr-14 19:29N 33°47' E 131°49'612.3
2018-Apr-14 19:01N 33°48' E 131°42'612.3
2018-Apr-14 18:31N 33°49' E 131°34'612.5
2018-Apr-14 18:00N 33°50' E 131°27'612.7
2018-Apr-14 17:30N 33°51' E 131°19'612.9
2018-Apr-14 17:01N 33°53' E 131°12'713.1
2018-Apr-14 16:30N 33°56' E 131°05'612.8
2018-Apr-14 16:01N 33°58' E 130°58'5 9.4
2018-Apr-14 15:30N 33°56' E 130°52'612.5
2018-Apr-14 15:00N 33°58' E 130°45'713.3
2018-Apr-14 14:30N 33°57' E 130°37'713.1
2018-Apr-14 14:00N 33°55' E 130°29'713.3
2018-Apr-14 13:30N 33°51' E 130°24'713.3
2018-Apr-14 13:00N 33°46' E 130°18'713.6
2018-Apr-14 12:31N 33°42' E 130°12'713.3
2018-Apr-14 12:00N 33°37' E 130°05'  
Track history (hours):
 
Tides and Currents Weather Stations Pressure Air Temp Water Temp Dewpoint Dewpoint Depression Visibility Wind Speed Wind Dir Waves Ship Positions

Souryoumaru

Last reported at 2018-Apr-23 07:30 UTC. Time now 2018-Apr-23 07:31 UTC.
Position N 34°07' E 135°02'.

Length 65 m; draft 4.2 m.

Type: Ship (hazmat cat C). MMSI: 431000864.

Date/timePositionNaut miles runAvg speedWind from/ knotsBaromVisibWave heightAir tempDewpointWater temp
2018-Apr-23 07:30N 34°07' E 135°02'611.8
2018-Apr-23 07:00N 34°13' E 135°03'611.6
2018-Apr-23 06:30N 34°19' E 135°04'611.2
2018-Apr-23 06:00N 34°23' E 135°08'611.6
2018-Apr-23 05:30N 34°28' E 135°12'612.1
2018-Apr-23 05:00N 34°33' E 135°17'612.1
2018-Apr-23 04:30N 34°37' E 135°21'4 8.7
2018-Apr-23 04:00N 34°40' E 135°25'0 0.0
2018-Apr-23 03:30N 34°40' E 135°25'0 0.0
2018-Apr-23 03:00N 34°40' E 135°25'0 0.0
2018-Apr-23 02:31N 34°40' E 135°25'0 0.2
2018-Apr-23 02:00N 34°40' E 135°25'5 9.2
2018-Apr-23 01:30N 34°37' E 135°21'612.3
2018-Apr-23 01:00N 34°32' E 135°17'612.0
2018-Apr-23 00:30N 34°27' E 135°12'611.8
2018-Apr-23 00:00N 34°23' E 135°08'611.3
2018-Apr-22 23:30N 34°18' E 135°04'510.6
2018-Apr-22 23:00N 34°13' E 135°02'612.4
2018-Apr-22 22:30N 34°07' E 135°00'612.1
2018-Apr-22 22:00N 34°01' E 135°00'612.1
2018-Apr-22 21:30N 33°55' E 135°00'511.2
2018-Apr-22 21:00N 33°49' E 135°02'612.1
2018-Apr-22 20:29N 33°45' E 135°08'612.0
2018-Apr-22 19:59N 33°41' E 135°13'612.1
2018-Apr-22 19:28N 33°37' E 135°18'511.7
2018-Apr-22 19:01N 33°33' E 135°23'4910.7
2018-Apr-22 14:24N 33°48' E 136°19'2312.2
2018-Apr-22 12:31N 34°03' E 136°40'512.3
2018-Apr-22 12:06N 34°06' E 136°44'111.9
2018-Apr-22 12:00N 34°07' E 136°45'712.0
2018-Apr-22 11:24N 34°12' E 136°52'17 9.9
2018-Apr-22 09:41N 34°29' E 136°52'211.3
2018-Apr-22 09:29N 34°31' E 136°50'510.3
2018-Apr-22 09:00N 34°35' E 136°48'611.9
2018-Apr-22 08:29N 34°41' E 136°46'612.0
2018-Apr-22 07:59N 34°47' E 136°44'612.0
2018-Apr-22 07:30N 34°52' E 136°42'510.3
2018-Apr-22 07:00N 34°57' E 136°39'1 1.3
2018-Apr-22 06:30N 34°57' E 136°38'0 0.0
2018-Apr-22 06:00N 34°57' E 136°38'0 0.0
2018-Apr-22 05:30N 34°57' E 136°38'0 0.0
2018-Apr-22 05:00N 34°57' E 136°38'0 0.0
2018-Apr-22 04:30N 34°57' E 136°38'0 0.0
2018-Apr-22 04:00N 34°57' E 136°38'3 5.9
2018-Apr-22 03:30N 34°56' E 136°41'612.0
2018-Apr-22 03:00N 34°50' E 136°45'612.0
2018-Apr-22 02:30N 34°45' E 136°48'611.8
2018-Apr-22 02:00N 34°40' E 136°52'611.7
2018-Apr-22 01:28N 34°36' E 136°58'610.9
2018-Apr-22 00:57N 34°33' E 137°04'511.6
2018-Apr-22 00:30N 34°33' E 137°10'611.4
2018-Apr-22 00:00N 34°33' E 137°17'1911.7
2018-Apr-21 22:23N 34°33' E 137°40'711.6
2018-Apr-21 21:49N 34°33' E 137°48'511.4
2018-Apr-21 21:23N 34°33' E 137°54'411.3
2018-Apr-21 21:00N 34°33' E 137°59'611.2
2018-Apr-21 20:29N 34°32' E 138°06'811.5
2018-Apr-21 19:49N 34°32' E 138°15'511.4
2018-Apr-21 19:22N 34°33' E 138°22'411.8
2018-Apr-21 19:00N 34°33' E 138°27'611.7
2018-Apr-21 18:30N 34°34' E 138°34'611.9
2018-Apr-21 18:00N 34°34' E 138°41'611.6
2018-Apr-21 17:29N 34°35' E 138°49'511.0
2018-Apr-21 17:00N 34°36' E 138°55'611.1
2018-Apr-21 16:30N 34°39' E 139°00'511.0
2018-Apr-21 16:00N 34°43' E 139°04'610.7
2018-Apr-21 15:28N 34°48' E 139°08'511.1
2018-Apr-21 15:00N 34°49' E 139°14'510.1
2018-Apr-21 14:30N 34°50' E 139°21'510.1
2018-Apr-21 14:00N 34°50' E 139°27'510.7
2018-Apr-21 13:30N 34°49' E 139°33'5 9.8
2018-Apr-21 13:00N 34°49' E 139°39'5 9.1
2018-Apr-21 12:30N 34°49' E 139°45'510.5
2018-Apr-21 12:01N 34°51' E 139°50'611.1
2018-Apr-21 11:28N 34°53' E 139°57'511.1
2018-Apr-21 11:00N 34°56' E 140°02'510.9
2018-Apr-21 10:30N 34°59' E 140°08'510.6
2018-Apr-21 10:00N 35°02' E 140°13'510.2
2018-Apr-21 09:29N 35°05' E 140°19'56 2.8
2018-Apr-20 13:09N 34°46' E 139°14'213.7
2018-Apr-20 13:00N 34°45' E 139°12'913.6
2018-Apr-20 12:23N 34°40' E 139°04'712.2
2018-Apr-20 11:48N 34°36' E 138°57'512.2
2018-Apr-20 11:22N 34°34' E 138°51'713.1
2018-Apr-20 10:52N 34°32' E 138°43'613.2
2018-Apr-20 10:26N 34°31' E 138°37'613.3
2018-Apr-20 10:00N 34°29' E 138°30'712.9
2018-Apr-20 09:29N 34°27' E 138°22'17010.7
2018-Apr-19 17:40N 33°50' E 135°02'213.1
2018-Apr-19 17:30N 33°51' E 135°01'713.3
2018-Apr-19 17:00N 33°57' E 134°56'813.2
2018-Apr-19 16:24N 34°03' E 134°49'513.0
2018-Apr-19 16:00N 34°07' E 134°45'812.9
2018-Apr-19 15:24N 34°13' E 134°40'511.7
2018-Apr-19 14:56N 34°17' E 134°35'512.1
2018-Apr-19 14:30N 34°18' E 134°29'612.5
2018-Apr-19 14:01N 34°21' E 134°22'611.8
2018-Apr-19 13:31N 34°23' E 134°15'12 9.9
2018-Apr-19 12:18N 34°25' E 134°01'3 0.1
2018-Apr-18 14:22N 34°27' E 134°04'513.1
2018-Apr-18 14:00N 34°26' E 134°09'813.2
2018-Apr-18 13:26N 34°23' E 134°18'512.5
2018-Apr-18 13:00N 34°21' E 134°24'612.1
2018-Apr-18 12:31N 34°18' E 134°30'612.3
2018-Apr-18 12:00N 34°16' E 134°37'713.4
2018-Apr-18 11:30N 34°11' E 134°42'612.2
2018-Apr-18 11:00N 34°06' E 134°46'612.1
2018-Apr-18 10:30N 34°01' E 134°51'612.0
2018-Apr-18 10:00N 33°56' E 134°56'612.2
2018-Apr-18 09:30N 33°52' E 135°01'83 9.1
2018-Apr-18 00:23N 34°02' E 136°40'512.3
2018-Apr-18 00:00N 34°05' E 136°44'7811.8
2018-Apr-17 17:23N 34°29' E 138°15'411.6
2018-Apr-17 17:00N 34°30' E 138°20'711.7
2018-Apr-17 16:26N 34°32' E 138°28'511.4
2018-Apr-17 16:01N 34°33' E 138°34'611.4
2018-Apr-17 15:27N 34°34' E 138°41'612.1
2018-Apr-17 14:58N 34°35' E 138°48'511.5
2018-Apr-17 14:31N 34°36' E 138°54'611.1
2018-Apr-17 14:00N 34°38' E 139°00'611.4
2018-Apr-17 13:31N 34°42' E 139°06'711.9
2018-Apr-17 12:56N 34°47' E 139°12'511.3
2018-Apr-17 12:30N 34°49' E 139°17'711.7
2018-Apr-17 11:54N 34°51' E 139°25'511.6
2018-Apr-17 11:29N 34°51' E 139°31'611.7
2018-Apr-17 11:00N 34°51' E 139°38'711.2
2018-Apr-17 10:25N 34°52' E 139°46'1010.5
2018-Apr-17 09:28N 34°53' E 139°58'510.7
2018-Apr-17 09:00N 34°57' E 140°02'510.7
2018-Apr-17 08:30N 34°60' E 140°08'510.8
2018-Apr-17 08:00N 35°03' E 140°13'52 2.4
2018-Apr-16 10:09N 34°46' E 139°14'212.3
2018-Apr-16 10:00N 34°45' E 139°12'811.9
2018-Apr-16 09:18N 34°39' E 139°04'411.3
2018-Apr-16 08:55N 34°37' E 138°60'20310.9
2018-Apr-15 14:19N 33°52' E 135°01'513.1
2018-Apr-15 13:58N 33°55' E 134°57'612.9
2018-Apr-15 13:29N 34°00' E 134°53'612.8
2018-Apr-15 13:00N 34°05' E 134°48'1512.5
2018-Apr-15 11:49N 34°16' E 134°36'412.3
2018-Apr-15 11:29N 34°18' E 134°31'612.3
2018-Apr-15 11:01N 34°20' E 134°25'611.8
2018-Apr-15 10:30N 34°22' E 134°18'79 7.2
2018-Apr-14 23:31N 34°04' E 132°44'213.3
2018-Apr-14 23:21N 34°03' E 132°42'513.3
2018-Apr-14 23:01N 34°01' E 132°37'813.5
2018-Apr-14 22:26N 33°56' E 132°30'613.8
2018-Apr-14 22:00N 33°52' E 132°25'713.1
2018-Apr-14 21:29N 33°50' E 132°17'1112.6
2018-Apr-14 20:37N 33°46' E 132°05'212.4
2018-Apr-14 20:25N 33°45' E 132°02'612.4
2018-Apr-14 19:58N 33°46' E 131°56'612.2
2018-Apr-14 19:29N 33°47' E 131°49'612.3
2018-Apr-14 19:01N 33°48' E 131°42'612.3
2018-Apr-14 18:31N 33°49' E 131°34'612.5
2018-Apr-14 18:00N 33°50' E 131°27'612.7
2018-Apr-14 17:30N 33°51' E 131°19'612.9
2018-Apr-14 17:01N 33°53' E 131°12'713.1
2018-Apr-14 16:30N 33°56' E 131°05'612.8
2018-Apr-14 16:01N 33°58' E 130°58'5 9.4
2018-Apr-14 15:30N 33°56' E 130°52'612.5
2018-Apr-14 15:00N 33°58' E 130°45'713.3
2018-Apr-14 14:30N 33°57' E 130°37'713.1
2018-Apr-14 14:00N 33°55' E 130°29'713.3
2018-Apr-14 13:30N 33°51' E 130°24'713.3
2018-Apr-14 13:00N 33°46' E 130°18'713.6
2018-Apr-14 12:31N 33°42' E 130°12'713.3
2018-Apr-14 12:00N 33°37' E 130°05'  

Dump ship's entire track history